Time;durP1;ratioP1;P1;durP2;ratioP2;P2;SDS_P1;SDS_P2;PMS_P1;PMS_P2;Temp;Humidity;BMP_temperature;BMP_pressure;BME280_temperature;BME280_humidity;BME280_pressure;Samples;Min_cycle;Max_cycle;Signal;HPM_P1;HPM_P2
2023/10/05 00:03:38;;;;;;;16.00;2.92;;;;;;;11.99;100.00;102226.25;5026591;28;19913;-75
2023/10/05 00:06:16;;;;;;;8.13;2.47;;;;;;;11.98;100.00;102227.19;5026963;28;20102;-74
2023/10/05 00:08:47;;;;;;;11.32;2.33;;;;;;;11.97;100.00;102229.03;5027066;28;20045;-72
2023/10/05 00:11:29;;;;;;;5.60;2.22;;;;;;;11.98;100.00;102228.09;5027249;28;20153;-74
2023/10/05 00:13:57;;;;;;;9.60;3.22;;;;;;;11.99;100.00;102231.72;5025380;28;20091;-73
2023/10/05 00:16:23;;;;;;;5.85;2.20;;;;;;;11.98;100.00;102236.28;5033828;28;20036;-74
2023/10/05 00:18:50;;;;;;;7.38;2.40;;;;;;;11.98;100.00;102233.56;5045040;28;20032;-75
2023/10/05 00:21:21;;;;;;;10.05;2.63;;;;;;;11.89;100.00;102230.44;5038209;28;20048;-74
2023/10/05 00:23:52;;;;;;;7.90;2.00;;;;;;;11.97;100.00;102239.97;5025702;28;20128;-74
2023/10/05 00:26:20;;;;;;;6.93;2.63;;;;;;;11.99;100.00;102245.34;5041933;28;20128;-73
2023/10/05 00:29:00;;;;;;;10.50;2.50;;;;;;;11.97;100.00;102241.81;5025388;28;20428;-71
2023/10/05 00:31:26;;;;;;;6.38;2.08;;;;;;;11.97;100.00;102245.41;5013357;28;20079;-73
2023/10/05 00:33:55;;;;;;;5.47;2.20;;;;;;;11.97;100.00;102252.72;5032393;28;20045;-72
2023/10/05 00:36:21;;;;;;;10.10;3.35;;;;;;;11.96;100.00;102259.16;5026305;28;20053;-74
2023/10/05 00:38:46;;;;;;;6.00;2.53;;;;;;;11.95;100.00;102257.38;5036026;28;20041;-69
2023/10/05 00:41:13;;;;;;;10.15;2.53;;;;;;;11.96;100.00;102264.59;5046824;28;20386;-74
2023/10/05 00:43:39;;;;;;;9.20;2.35;;;;;;;11.95;100.00;102266.44;5045900;28;20033;-73
2023/10/05 00:46:06;;;;;;;10.35;2.63;;;;;;;11.93;100.00;102262.91;5041581;28;20037;-73
2023/10/05 00:48:42;;;;;;;9.07;3.38;;;;;;;11.93;100.00;102265.63;5044733;28;20071;-73
2023/10/05 00:51:23;;;;;;;6.53;2.38;;;;;;;11.93;100.00;102256.56;5043333;28;20044;-74
2023/10/05 00:53:50;;;;;;;7.85;3.13;;;;;;;11.93;100.00;102259.31;5026292;28;20540;-75
2023/10/05 00:56:16;;;;;;;9.50;2.67;;;;;;;11.91;100.00;102263.97;5025807;28;20379;-74
2023/10/05 00:58:46;;;;;;;8.13;2.22;;;;;;;11.91;100.00;102258.53;5025047;28;20136;-73
2023/10/05 01:01:15;;;;;;;7.43;2.58;;;;;;;11.89;100.00;102263.16;5025249;28;20137;-75
2023/10/05 01:04:12;;;;;;;6.03;2.05;;;;;;;11.85;100.00;102259.75;5025856;28;20603;-75
2023/10/05 01:06:39;;;;;;;12.25;2.83;;;;;;;11.87;100.00;102276.91;5026030;28;20033;-74
2023/10/05 01:09:11;;;;;;;6.70;2.40;;;;;;;11.84;100.00;102268.88;5024879;28;20041;-75
2023/10/05 01:11:44;;;;;;;8.10;2.42;;;;;;;11.84;100.00;102265.25;5008009;28;20054;-76
2023/10/05 01:14:10;;;;;;;6.70;2.40;;;;;;;11.84;100.00;102268.88;5024919;28;20121;-74
2023/10/05 01:16:35;;;;;;;6.47;2.55;;;;;;;11.82;100.00;102256.28;5036422;28;20033;-74
2023/10/05 01:19:07;;;;;;;8.82;2.28;;;;;;;11.82;100.00;102254.47;5044542;28;20059;-73
2023/10/05 01:21:37;;;;;;;12.02;2.70;;;;;;;11.82;100.00;102264.44;5041630;28;20527;-73
2023/10/05 01:24:04;;;;;;;6.45;2.20;;;;;;;11.80;100.00;102267.28;5035327;28;20488;-73
2023/10/05 01:26:31;;;;;;;8.18;2.28;;;;;;;11.81;100.00;102262.69;5045150;28;20100;-73
2023/10/05 01:28:57;;;;;;;8.50;2.47;;;;;;;11.81;100.00;102258.13;5045739;28;20041;-74
2023/10/05 01:31:23;;;;;;;11.73;2.60;;;;;;;11.82;100.00;102256.28;5020183;28;20060;-75
2023/10/05 01:33:49;;;;;;;10.73;2.30;;;;;;;11.81;100.00;102249.94;5038421;28;20037;-75
2023/10/05 01:36:19;;;;;;;12.98;2.47;;;;;;;11.81;100.00;102260.84;5045211;28;20492;-74
2023/10/05 01:38:45;;;;;;;6.47;2.35;;;;;;;11.82;100.00;102250.81;5046331;28;20497;-74
2023/10/05 01:41:11;;;;;;;7.50;2.42;;;;;;;11.82;100.00;102256.28;5043623;28;20500;-74
2023/10/05 01:43:42;;;;;;;10.32;2.63;;;;;;;11.79;100.00;102251.84;5024309;28;20095;-74
2023/10/05 01:46:10;;;;;;;8.63;2.30;;;;;;;11.81;100.00;102255.41;5024862;28;20408;-72
2023/10/05 01:48:36;;;;;;;9.30;3.08;;;;;;;11.79;100.00;102248.25;5025500;28;20029;-75
2023/10/05 01:51:10;;;;;;;6.97;2.65;;;;;;;11.80;100.00;102253.63;5024689;28;20034;-76
2023/10/05 01:53:36;;;;;;;10.32;3.28;;;;;;;11.80;100.00;102250.00;5007966;28;20041;-75
2023/10/05 01:56:03;;;;;;;11.63;3.40;;;;;;;11.78;100.00;102243.78;5036659;28;20044;-74
2023/10/05 01:58:31;;;;;;;6.45;2.53;;;;;;;11.80;100.00;102242.72;5047623;28;20043;-74
2023/10/05 02:00:56;;;;;;;4.68;2.42;;;;;;;11.78;100.00;102236.47;5039560;28;20040;-74
2023/10/05 02:03:25;;;;;;;7.10;2.45;;;;;;;11.78;100.00;102243.78;5029053;28;20025;-73
2023/10/05 02:05:56;;;;;;;6.82;2.88;;;;;;;11.75;100.00;102239.38;5029411;28;20045;-75
2023/10/05 02:08:21;;;;;;;10.43;2.80;;;;;;;11.74;100.00;102249.38;5011229;28;20045;-75
2023/10/05 02:10:48;;;;;;;5.88;2.45;;;;;;;11.74;100.00;102245.78;5028986;28;20417;-74
2023/10/05 02:13:13;;;;;;;5.93;2.47;;;;;;;11.70;100.00;102244.19;5028236;28;20125;-74
2023/10/05 02:15:40;;;;;;;7.35;2.60;;;;;;;11.70;100.00;102236.91;5027778;28;20465;-70
2023/10/05 02:18:26;;;;;;;8.43;2.90;;;;;;;11.71;100.00;102232.34;5027158;28;20457;-73
2023/10/05 02:21:06;;;;;;;11.25;2.67;;;;;;;11.69;100.00;102228.78;5029147;28;20064;-73
2023/10/05 02:23:39;;;;;;;13.23;2.63;;;;;;;11.67;100.00;102238.91;5027210;28;20052;-75
2023/10/05 02:26:10;;;;;;;6.78;2.50;;;;;;;11.65;100.00;102236.25;5027577;28;20037;-75
2023/10/05 02:28:39;;;;;;;10.43;2.95;;;;;;;11.65;100.00;102235.38;5027242;28;20040;-74
2023/10/05 02:31:08;;;;;;;8.45;2.67;;;;;;;11.63;100.00;102230.00;5030027;28;20120;-74
2023/10/05 02:33:37;;;;;;;6.90;2.50;;;;;;;11.61;100.00;102228.31;5028036;28;20045;-74
2023/10/05 02:36:14;;;;;;;7.22;2.58;;;;;;;11.62;100.00;102235.56;5028943;28;20033;-75
2023/10/05 02:38:48;;;;;;;11.10;2.58;;;;;;;11.59;100.00;102231.13;5028325;28;20045;-74
2023/10/05 02:41:24;;;;;;;11.32;2.25;;;;;;;11.57;100.00;102218.56;5029204;28;20049;-75
2023/10/05 02:43:53;;;;;;;10.82;2.90;;;;;;;11.54;100.00;102221.47;5027096;28;20022;-74
2023/10/05 02:46:20;;;;;;;10.48;2.75;;;;;;;11.51;100.00;102208.88;5027398;28;20148;-74
2023/10/05 02:48:47;;;;;;;9.00;2.53;;;;;;;11.45;100.00;102201.91;5028551;28;20526;-75
2023/10/05 02:51:14;;;;;;;9.20;3.05;;;;;;;11.45;100.00;102204.63;5027854;28;20033;-71
2023/10/05 02:53:43;;;;;;;10.10;3.00;;;;;;;11.45;100.00;102204.63;5028203;28;20473;-74
2023/10/05 02:56:27;;;;;;;13.40;2.95;;;;;;;11.45;100.00;102211.94;5042270;28;20048;-75
2023/10/05 02:58:54;;;;;;;8.60;2.42;;;;;;;11.44;100.00;102211.06;5047073;28;20396;-76
2023/10/05 03:01:23;;;;;;;7.38;2.70;;;;;;;11.41;100.00;102216.66;5036524;28;20037;-74
2023/10/05 03:03:51;;;;;;;8.73;2.38;;;;;;;11.41;100.00;102213.06;5026072;28;20025;-74
2023/10/05 03:06:17;;;;;;;10.45;2.33;;;;;;;11.42;100.00;102225.72;5027085;28;20504;-72
2023/10/05 03:08:47;;;;;;;10.35;2.75;;;;;;;11.41;100.00;102210.34;5025968;28;20047;-75
2023/10/05 03:11:12;;;;;;;8.82;3.33;;;;;;;11.43;100.00;102205.69;5041582;28;20064;-74
2023/10/05 03:13:38;;;;;;;7.72;3.10;;;;;;;11.41;100.00;102207.59;5046312;28;20059;-73
2023/10/05 03:16:10;;;;;;;11.27;2.70;;;;;;;11.43;100.00;102208.44;5035253;28;20508;-76
2023/10/05 03:18:43;;;;;;;9.68;2.42;;;;;;;11.40;100.00;102209.47;5026292;28;20033;-73
2023/10/05 03:21:13;;;;;;;7.07;2.55;;;;;;;11.39;100.00;102201.38;5026864;28;20488;-76
2023/10/05 03:23:41;;;;;;;9.90;3.20;;;;;;;11.37;100.00;102204.16;5027531;28;20440;-74
2023/10/05 03:26:08;;;;;;;12.10;3.42;;;;;;;11.37;100.00;102198.72;5026376;28;20079;-74
2023/10/05 03:28:35;;;;;;;13.23;2.85;;;;;;;11.36;100.00;102201.53;5031806;28;20536;-75
2023/10/05 03:31:07;;;;;;;6.25;2.78;;;;;;;11.36;100.00;102198.81;5034073;28;20033;-73
2023/10/05 03:33:34;;;;;;;8.25;2.75;;;;;;;11.36;100.00;102199.69;5041968;28;20048;-70
2023/10/05 03:36:06;;;;;;;8.43;2.65;;;;;;;11.36;100.00;102199.69;5027674;28;20414;-74
2023/10/05 03:38:32;;;;;;;9.15;2.78;;;;;;;11.36;100.00;102198.81;5026052;28;20381;-73
2023/10/05 03:41:04;;;;;;;9.00;2.88;;;;;;;11.36;100.00;102201.53;5009651;28;20040;-73
2023/10/05 03:43:31;;;;;;;6.93;2.80;;;;;;;11.35;100.00;102197.06;5025205;28;20083;-73
2023/10/05 03:46:06;;;;;;;9.32;2.83;;;;;;;11.34;100.00;102203.47;5024707;28;20083;-74
2023/10/05 03:48:32;;;;;;;6.85;2.55;;;;;;;11.31;100.00;102215.41;5038442;28;20124;-74
2023/10/05 03:50:57;;;;;;;9.50;3.22;;;;;;;11.29;100.00;102206.44;5026953;28;20105;-74
2023/10/05 03:53:24;;;;;;;11.15;2.88;;;;;;;11.26;100.00;102203.88;5027016;28;20048;-74
2023/10/05 03:55:50;;;;;;;10.95;2.78;;;;;;;11.27;100.00;102199.31;5026015;28;20033;-74
2023/10/05 03:58:18;;;;;;;11.27;3.13;;;;;;;11.26;100.00;102200.28;5026546;28;20030;-76
2023/10/05 04:00:49;;;;;;;6.90;3.10;;;;;;;11.25;100.00;102202.13;5026367;28;20041;-74
2023/10/05 04:03:15;;;;;;;5.78;2.60;;;;;;;11.26;100.00;102203.00;5025698;28;20029;-76
2023/10/05 04:05:40;;;;;;;6.32;2.53;;;;;;;11.22;100.00;102203.16;5027151;28;20059;-75
2023/10/05 04:08:11;;;;;;;8.68;2.60;;;;;;;11.20;100.00;102196.91;5026580;28;20132;-75
2023/10/05 04:10:52;;;;;;;7.78;2.63;;;;;;;11.21;100.00;102192.34;5026922;28;20159;-74
2023/10/05 04:13:20;;;;;;;9.30;2.80;;;;;;;11.20;100.00;102201.50;5026803;28;20091;-74
2023/10/05 04:15:46;;;;;;;7.95;2.72;;;;;;;11.19;100.00;102207.88;5036229;28;20034;-74
2023/10/05 04:18:14;;;;;;;6.95;2.67;;;;;;;11.15;100.00;102201.72;5025047;28;20041;-73
2023/10/05 04:20:43;;;;;;;11.68;3.28;;;;;;;11.14;100.00;102212.69;5025180;28;20133;-75
2023/10/05 04:23:15;;;;;;;10.88;3.17;;;;;;;11.12;100.00;102209.19;5026456;28;20037;-75
2023/10/05 04:25:41;;;;;;;;;;;;;;;11.15;100.00;102207.19;5025683;28;20076;-75
2023/10/05 04:28:06;;;;;;;6.72;2.65;;;;;;;11.12;100.00;102212.78;5026419;28;20014;-75
2023/10/05 04:30:33;;;;;;;9.77;2.80;;;;;;;11.10;100.00;102214.72;5026866;28;20032;-77
2023/10/05 04:32:59;;;;;;;7.70;2.72;;;;;;;11.08;100.00;102204.84;5026543;28;20118;-75
2023/10/05 04:35:28;;;;;;;10.32;3.65;;;;;;;11.08;100.00;102199.41;5046288;28;20045;-77
2023/10/05 04:37:54;;;;;;;9.55;3.20;;;;;;;11.08;100.00;102203.00;5032614;28;20405;-73
2023/10/05 04:40:24;;;;;;;10.13;2.90;;;;;;;11.06;100.00;102213.13;5039903;28;20755;-75
2023/10/05 04:42:58;;;;;;;10.52;3.63;;;;;;;11.05;100.00;102214.09;5045681;28;20548;-75
2023/10/05 04:45:24;;;;;;;9.57;3.25;;;;;;;11.04;100.00;102209.56;5026577;28;20045;-75
2023/10/05 04:47:49;;;;;;;8.35;2.85;;;;;;;11.04;100.00;102204.13;5026035;28;20032;-76
2023/10/05 04:50:15;;;;;;;8.02;2.78;;;;;;;11.06;100.00;102206.78;5026657;28;20078;-76
2023/10/05 04:52:41;;;;;;;11.60;3.60;;;;;;;11.06;100.00;102212.22;5026258;28;20145;-74
2023/10/05 04:55:22;;;;;;;8.65;2.80;;;;;;;11.02;100.00;102202.47;5025793;28;21061;-74
2023/10/05 04:57:55;;;;;;;7.55;2.60;;;;;;;11.02;100.00;102206.06;5025928;28;20037;-75
2023/10/05 05:03:16;;;;;;;14.63;3.03;;;;;;;10.97;100.00;102189.97;5025641;28;19913;-74
2023/10/05 05:08:27;;;;;;;6.82;2.75;;;;;;;10.94;100.00;102202.84;5026236;28;20034;-75
2023/10/05 05:10:52;;;;;;;11.80;3.08;;;;;;;10.93;100.00;102204.69;5008427;28;20053;-71
2023/10/05 05:13:20;;;;;;;11.63;3.38;;;;;;;10.94;100.00;102208.28;5024865;28;20401;-74
2023/10/05 05:15:45;;;;;;;6.93;3.10;;;;;;;10.95;100.00;102208.22;5025803;28;20442;-75
2023/10/05 05:18:14;;;;;;;9.82;2.70;;;;;;;10.96;100.00;102214.56;5025643;28;20106;-75
2023/10/05 05:20:41;;;;;;;11.98;3.50;;;;;;;10.93;100.00;102209.25;5026443;28;20046;-76
2023/10/05 05:23:07;;;;;;;9.90;2.50;;;;;;;10.94;100.00;102211.91;5040104;28;20434;-75
2023/10/05 05:25:32;;;;;;;8.07;3.08;;;;;;;10.94;100.00;102214.63;5039662;28;20033;-75
2023/10/05 05:28:01;;;;;;;17.95;5.28;;;;;;;10.96;100.00;102210.00;5025993;28;20401;-75
2023/10/05 05:30:26;;;;;;;10.93;3.95;;;;;;;10.99;100.00;102220.69;5025385;28;20112;-75
2023/10/05 05:32:56;;;;;;;12.00;3.75;;;;;;;10.98;100.00;102224.41;5030035;28;20063;-76
2023/10/05 05:35:22;;;;;;;10.00;4.00;;;;;;;10.98;100.00;102215.34;5029274;28;20477;-73
2023/10/05 05:37:48;;;;;;;9.95;2.83;;;;;;;11.01;100.00;102222.50;5029850;28;20543;-75
2023/10/05 05:40:14;;;;;;;8.65;3.15;;;;;;;11.04;100.00;102216.88;5030742;28;20041;-76
2023/10/05 05:42:45;;;;;;;13.57;3.53;;;;;;;11.06;100.00;102229.44;5029204;28;20041;-74
2023/10/05 05:45:16;;;;;;;8.35;3.20;;;;;;;11.09;100.00;102233.84;5040732;28;20140;-73
2023/10/05 05:47:43;;;;;;;12.05;3.72;;;;;;;11.10;100.00;102231.06;5030348;28;20069;-75
2023/10/05 05:50:15;;;;;;;14.70;4.63;;;;;;;11.12;100.00;102233.69;5029762;28;20115;-75
2023/10/05 05:52:41;;;;;;;11.83;3.77;;;;;;;11.15;100.00;102237.16;5027949;28;20080;-75
2023/10/05 05:55:10;;;;;;;11.20;3.30;;;;;;;11.15;100.00;102231.69;5028025;28;20096;-75
2023/10/05 05:57:36;;;;;;;13.45;3.47;;;;;;;11.20;100.00;102229.59;5027793;28;20079;-74
2023/10/05 06:00:10;;;;;;;12.65;4.18;;;;;;;11.25;100.00;102237.53;5029486;28;20037;-75
2023/10/05 06:02:40;;;;;;;8.52;3.60;;;;;;;11.26;100.00;102233.84;5029326;28;20449;-75
2023/10/05 06:05:09;;;;;;;11.32;3.40;;;;;;;11.29;100.00;102230.09;5029730;28;20037;-76
2023/10/05 06:07:39;;;;;;;11.25;3.47;;;;;;;11.31;100.00;102231.75;5027907;28;20068;-72
2023/10/05 06:10:12;;;;;;;11.00;3.50;;;;;;;11.34;100.00;102228.88;5029284;28;20056;-74
2023/10/05 06:12:51;;;;;;;6.30;2.97;;;;;;;11.37;100.00;102236.88;5029398;28;20052;-75
2023/10/05 06:15:16;;;;;;;9.82;3.47;;;;;;;11.40;100.00;102236.72;5028453;28;20438;-70
2023/10/05 06:17:43;;;;;;;10.18;3.20;;;;;;;11.43;100.00;102239.28;5029120;28;20112;-76
2023/10/05 06:20:15;;;;;;;11.38;3.50;;;;;;;11.47;100.00;102246.34;5029573;28;20022;-76
2023/10/05 06:22:45;;;;;;;13.07;3.30;;;;;;;11.50;100.00;102261.63;5027896;28;20222;-74
2023/10/05 06:25:12;;;;;;;6.97;3.17;;;;;;;11.53;100.00;102255.13;5047184;28;20358;-74
2023/10/05 06:27:37;;;;;;;7.38;3.25;;;;;;;11.55;100.00;102256.78;5046151;28;20124;-75
2023/10/05 06:30:07;;;;;;;9.40;3.45;;;;;;;11.59;100.00;102262.97;5029702;28;20540;-76
2023/10/05 06:32:32;;;;;;;9.45;3.38;;;;;;;11.62;100.00;102265.53;5028523;28;20523;-74
2023/10/05 06:34:58;;;;;;;7.40;3.40;;;;;;;11.65;100.00;102263.50;5029172;28;20120;-75
2023/10/05 06:37:25;;;;;;;9.57;3.60;;;;;;;11.68;100.00;102263.34;5028909;28;20041;-75
2023/10/05 06:39:53;;;;;;;6.45;3.35;;;;;;;11.74;100.00;102262.13;5043311;28;20512;-74
2023/10/05 06:42:18;;;;;;;13.07;3.53;;;;;;;11.79;100.00;102265.47;5046407;28;20072;-73
2023/10/05 06:44:44;;;;;;;10.52;3.00;;;;;;;11.82;100.00;102272.63;5028410;28;20418;-76
2023/10/05 06:47:18;;;;;;;11.73;3.78;;;;;;;11.85;100.00;102272.50;5041060;28;20488;-72
2023/10/05 06:49:44;;;;;;;11.85;3.50;;;;;;;11.88;100.00;102269.59;5049081;28;20313;-75
2023/10/05 06:52:09;;;;;;;9.02;3.58;;;;;;;11.92;100.00;102282.09;5037479;28;20120;-76
2023/10/05 06:54:34;;;;;;;10.85;3.58;;;;;;;11.95;100.00;102280.09;5028188;28;20028;-73
2023/10/05 06:57:00;;;;;;;9.60;3.58;;;;;;;11.97;100.00;102291.78;5026641;28;20095;-74
2023/10/05 06:59:26;;;;;;;8.65;3.38;;;;;;;12.03;100.00;102292.41;5027323;28;20045;-75
2023/10/05 07:01:52;;;;;;;14.88;3.75;;;;;;;12.09;100.00;102297.53;5040798;28;20658;-75
2023/10/05 07:04:24;;;;;;;17.67;3.78;;;;;;;12.12;100.00;102297.34;5048285;28;20138;-74
2023/10/05 07:06:50;;;;;;;7.57;3.28;;;;;;;12.17;100.00;102300.69;5040594;28;20558;-75
2023/10/05 07:09:16;;;;;;;11.10;3.17;;;;;;;12.20;100.00;102303.25;5027143;28;20033;-75
2023/10/05 07:11:41;;;;;;;11.15;3.35;;;;;;;12.23;100.00;102303.97;5026408;28;20061;-77
2023/10/05 07:14:09;;;;;;;9.88;3.40;;;;;;;12.27;100.00;102307.44;5028369;28;20033;-74
2023/10/05 07:16:35;;;;;;;12.05;3.78;;;;;;;12.32;100.00;102308.03;5035283;28;20709;-73
2023/10/05 07:19:00;;;;;;;9.00;3.05;;;;;;;12.39;100.00;102317.63;5047055;28;20029;-73
2023/10/05 07:21:25;;;;;;;11.57;3.30;;;;;;;12.45;100.00;102314.59;5028241;28;20120;-75
2023/10/05 07:23:51;;;;;;;13.73;3.33;;;;;;;12.54;100.00;102321.34;5027721;28;20481;-72
2023/10/05 07:26:16;;;;;;;11.80;3.38;;;;;;;12.62;100.00;102319.06;5027221;28;20045;-72
2023/10/05 07:28:41;;;;;;;10.77;3.15;;;;;;;12.71;100.00;102326.72;5026778;28;20043;-76
2023/10/05 07:31:07;;;;;;;13.93;3.63;;;;;;;12.77;100.00;102320.88;5027828;28;20122;-75
2023/10/05 07:33:36;;;;;;;9.85;3.40;;;;;;;12.86;100.00;102326.78;5027094;28;20064;-74
2023/10/05 07:36:02;;;;;;;8.48;2.85;;;;;;;12.95;100.00;102338.06;5027901;28;20080;-76
2023/10/05 07:38:28;;;;;;;12.80;3.63;;;;;;;13.05;100.00;102334.78;5026303;28;20045;-73
2023/10/05 07:40:57;;;;;;;11.48;2.92;;;;;;;13.11;100.00;102337.19;5026298;28;20045;-75
2023/10/05 07:43:23;;;;;;;11.02;3.15;;;;;;;13.21;100.00;102338.38;5027443;28;20037;-76
2023/10/05 07:45:49;;;;;;;10.23;3.88;;;;;;;13.27;100.00;102346.25;5027798;28;20500;-74
2023/10/05 07:48:14;;;;;;;10.07;3.47;;;;;;;13.34;100.00;102346.78;5031029;28;20037;-74
2023/10/05 07:50:40;;;;;;;9.52;3.03;;;;;;;13.38;100.00;102349.22;5047725;28;20039;-76
2023/10/05 07:53:05;;;;;;;8.52;3.95;;;;;;;13.47;100.00;102353.25;5034064;28;20552;-73
2023/10/05 07:55:31;;;;;;;14.52;3.80;;;;;;;13.57;100.00;102348.09;5025364;28;20041;-75
2023/10/05 07:57:56;;;;;;;8.10;3.65;;;;;;;13.68;100.00;102341.00;5027010;28;20041;-75
2023/10/05 08:00:22;;;;;;;14.45;3.28;;;;;;;13.79;100.00;102354.88;5027529;28;20048;-73
2023/10/05 08:02:47;;;;;;;8.50;3.10;;;;;;;13.88;100.00;102349.81;5025267;28;20041;-75
2023/10/05 08:05:13;;;;;;;9.68;3.55;;;;;;;13.94;99.94;102350.34;5028162;28;20029;-76
2023/10/05 08:07:39;;;;;;;7.10;3.30;;;;;;;14.02;99.58;102360.78;5027106;28;20485;-75
2023/10/05 08:10:19;;;;;;;14.82;3.63;;;;;;;14.09;99.66;102361.28;5027499;28;20047;-74
2023/10/05 08:12:47;;;;;;;9.88;3.47;;;;;;;14.18;99.64;102361.59;5047182;28;20471;-75
2023/10/05 08:15:13;;;;;;;9.00;3.45;;;;;;;14.26;99.32;102358.34;5046807;28;20032;-74
2023/10/05 08:17:39;;;;;;;8.68;3.33;;;;;;;14.38;98.41;102362.19;5026368;28;20033;-74
2023/10/05 08:20:06;;;;;;;9.05;3.30;;;;;;;14.46;97.11;102370.78;5025737;28;20029;-74
2023/10/05 08:22:32;;;;;;;13.25;3.72;;;;;;;14.50;96.70;102359.56;5025573;28;20044;-75
2023/10/05 08:25:00;;;;;;;10.20;3.10;;;;;;;14.57;96.03;102364.63;5026479;28;20046;-74
2023/10/05 08:27:26;;;;;;;12.23;3.75;;;;;;;14.62;96.00;102367.94;5026388;28;20037;-74
2023/10/05 08:29:52;;;;;;;7.97;3.22;;;;;;;14.71;96.76;102365.50;5027112;28;20405;-74
2023/10/05 08:32:22;;;;;;;12.73;3.80;;;;;;;14.69;94.64;102372.94;5025951;28;20109;-74
2023/10/05 08:34:48;;;;;;;12.80;3.20;;;;;;;14.72;95.42;102372.72;5026875;28;20121;-76
2023/10/05 08:37:13;;;;;;;13.02;3.60;;;;;;;14.71;93.87;102378.31;5027453;28;20072;-76
2023/10/05 08:39:39;;;;;;;7.05;3.38;;;;;;;14.78;94.54;102382.38;5025129;28;20151;-75
2023/10/05 08:42:07;;;;;;;9.05;3.17;;;;;;;14.81;93.82;102379.47;5026259;28;20469;-76
2023/10/05 08:44:39;;;;;;;9.15;3.40;;;;;;;14.86;93.10;102382.78;5026914;28;20092;-73
2023/10/05 08:47:08;;;;;;;6.18;3.05;;;;;;;14.98;94.48;102389.31;5025805;28;20037;-74
2023/10/05 08:49:34;;;;;;;10.93;3.53;;;;;;;15.04;93.26;102392.53;5025466;28;20053;-74
2023/10/05 08:51:59;;;;;;;9.65;3.10;;;;;;;15.08;94.50;102398.69;5026597;28;20114;-74
2023/10/05 08:54:28;;;;;;;13.13;3.53;;;;;;;15.13;93.07;102393.78;5035072;28;20067;-75
2023/10/05 08:56:58;;;;;;;8.43;2.72;;;;;;;15.15;92.16;102394.53;5044545;28;20415;-74
2023/10/05 08:59:26;;;;;;;13.80;3.65;;;;;;;15.22;93.67;102406.88;5046481;28;20044;-74
2023/10/05 09:01:53;;;;;;;10.85;3.70;;;;;;;15.22;92.61;102397.75;5031923;28;20081;-74
2023/10/05 09:06:49;;;;;;;11.63;3.58;;;;;;;15.27;92.08;102398.31;5029517;28;20033;-73
2023/10/05 09:09:18;;;;;;;7.05;3.08;;;;;;;15.29;91.43;102410.06;5029663;28;20033;-71
2023/10/05 09:11:43;;;;;;;6.53;2.78;;;;;;;15.38;92.38;102412.19;5030346;28;20049;-76
2023/10/05 09:14:13;;;;;;;13.43;4.80;;;;;;;15.46;92.38;102425.38;5030571;28;20045;-72
2023/10/05 09:16:46;;;;;;;9.27;3.50;;;;;;;15.49;91.63;102425.19;5031250;28;20836;-74
2023/10/05 09:19:26;;;;;;;7.30;3.70;;;;;;;15.53;90.71;102440.47;5031300;28;20057;-74
2023/10/05 09:24:25;;;;;;;15.60;4.47;;;;;;;15.59;90.64;102442.78;5048713;28;20044;-73
2023/10/05 09:26:58;;;;;;;6.03;3.03;;;;;;;15.68;91.81;102447.66;5049664;28;20082;-74
2023/10/05 09:29:28;;;;;;;7.72;3.42;;;;;;;15.79;91.71;102441.44;5050201;28;20037;-74
2023/10/05 09:31:54;;;;;;;11.48;3.35;;;;;;;15.87;92.01;102441.78;5033516;28;20075;-72
2023/10/05 09:34:49;;;;;;;10.02;3.20;;;;;;;15.88;90.60;102442.66;5030076;28;20094;-73
2023/10/05 09:37:16;;;;;;;9.85;3.05;;;;;;;15.87;89.75;102447.28;5029100;28;20128;-74
2023/10/05 09:39:44;;;;;;;13.77;3.45;;;;;;;15.84;87.85;102446.59;5029253;28;20033;-74
2023/10/05 09:42:17;;;;;;;10.50;3.42;;;;;;;15.94;90.23;102440.38;5029687;28;20068;-74
2023/10/05 09:44:53;;;;;;;8.05;2.65;;;;;;;16.00;88.44;102436.34;5030669;28;20045;-75
2023/10/05 09:47:32;;;;;;;9.30;3.17;;;;;;;16.10;89.95;102434.69;5029181;28;20051;-74
2023/10/05 09:50:09;;;;;;;10.93;3.60;;;;;;;16.04;87.20;102433.28;5029837;28;20420;-74
2023/10/05 09:52:46;;;;;;;10.63;3.40;;;;;;;15.98;87.57;102439.16;5028433;28;20043;-72
2023/10/05 09:55:21;;;;;;;7.43;3.03;;;;;;;15.95;87.44;102435.78;5028432;28;20049;-73
2023/10/05 09:57:47;;;;;;;9.93;3.05;;;;;;;15.94;88.67;102442.22;5029778;28;20041;-70
2023/10/05 10:03:01;;;;;;;8.25;2.78;;;;;;;16.05;89.12;102442.38;5044029;28;20488;-74
2023/10/05 10:05:48;;;;;;;12.13;3.17;;;;;;;16.08;90.43;102448.50;5029669;28;20073;-74
2023/10/05 10:08:21;;;;;;;8.15;3.30;;;;;;;16.19;89.36;102441.41;5029837;28;20509;-75
2023/10/05 10:11:01;;;;;;;14.07;3.13;;;;;;;16.23;87.96;102448.44;5043487;28;20131;-73
2023/10/05 10:13:29;;;;;;;8.90;2.80;;;;;;;16.28;87.23;102446.25;5048935;28;20120;-73
2023/10/05 10:15:58;;;;;;;7.55;3.03;;;;;;;16.28;87.64;102449.88;5041877;28;20112;-74
2023/10/05 10:18:37;;;;;;;5.63;2.58;;;;;;;16.37;88.00;102444.69;5026579;28;20080;-72
2023/10/05 10:21:08;;;;;;;9.25;3.00;;;;;;;16.46;87.22;102442.19;5029555;28;20045;-74
2023/10/05 10:23:36;;;;;;;8.63;3.20;;;;;;;16.51;87.12;102441.88;5029057;28;20042;-75
2023/10/05 10:26:16;;;;;;;10.02;3.20;;;;;;;16.53;87.26;102439.88;5029249;28;20025;-72
2023/10/05 10:31:14;;;;;;;11.95;3.42;;;;;;;16.72;85.08;102432.06;5029049;28;20083;-74
2023/10/05 10:33:40;;;;;;;13.75;3.25;;;;;;;16.78;85.44;102433.47;5028519;28;20056;-74
2023/10/05 10:36:18;;;;;;;14.93;3.00;;;;;;;16.82;85.63;102443.28;5027937;28;20486;-72
2023/10/05 10:38:50;;;;;;;11.70;3.90;;;;;;;16.89;84.44;102444.59;5029250;28;20045;-73
2023/10/05 10:41:17;;;;;;;13.40;3.22;;;;;;;17.01;86.88;102440.03;5029365;28;20048;-71
2023/10/05 10:43:49;;;;;;;7.15;2.50;;;;;;;17.05;85.22;102442.44;5047889;28;20024;-75
2023/10/05 10:46:29;;;;;;;7.32;3.10;;;;;;;17.15;85.33;102445.38;5047012;28;20059;-74
2023/10/05 10:48:57;;;;;;;12.50;3.50;;;;;;;17.22;84.15;102446.69;5048802;28;20127;-74
2023/10/05 10:51:24;;;;;;;10.00;3.28;;;;;;;17.29;83.55;102439.72;5043306;28;20037;-73
2023/10/05 10:53:55;;;;;;;9.40;3.33;;;;;;;17.48;85.06;102435.59;5027107;28;20388;-74
2023/10/05 10:56:27;;;;;;;17.80;3.57;;;;;;;17.69;83.73;102428.44;5027347;28;20037;-75
2023/10/05 10:59:10;;;;;;;10.57;2.92;;;;;;;17.90;82.86;102430.53;5028690;28;20564;-74
2023/10/05 11:01:52;;;;;;;7.40;3.08;;;;;;;18.13;84.00;102423.22;5027985;28;20071;-72
2023/10/05 11:04:25;;;;;;;12.77;3.30;;;;;;;18.44;81.16;102429.94;5027614;28;20047;-74
2023/10/05 11:07:05;;;;;;;9.15;3.22;;;;;;;18.51;80.69;102422.91;5027192;28;20088;-73
2023/10/05 11:09:36;;;;;;;15.65;3.28;;;;;;;18.56;78.02;102427.06;5031212;28;20036;-73
2023/10/05 11:12:10;;;;;;;9.65;2.90;;;;;;;18.72;78.68;102432.22;5047828;28;20068;-70
2023/10/05 11:14:42;;;;;;;11.93;3.38;;;;;;;18.84;75.86;102425.72;5048345;28;20045;-75
2023/10/05 11:17:30;;;;;;;8.75;2.90;;;;;;;19.02;79.37;102420.53;5032063;28;20041;-75
2023/10/05 11:20:12;;;;;;;8.27;2.75;;;;;;;19.31;75.93;102425.53;5028788;28;20049;-74
2023/10/05 11:22:42;;;;;;;9.38;2.80;;;;;;;19.36;75.28;102421.34;5028074;28;20489;-75
2023/10/05 11:25:14;;;;;;;11.15;3.38;;;;;;;19.56;75.96;102429.81;5027793;28;20013;-74
2023/10/05 11:27:48;;;;;;;10.93;3.25;;;;;;;19.51;72.41;102421.94;5027586;28;20503;-74
2023/10/05 11:30:21;;;;;;;6.80;2.70;;;;;;;19.51;73.79;102419.16;5027805;28;20034;-74
2023/10/05 11:32:56;;;;;;;15.55;3.00;;;;;;;19.45;74.45;102416.06;5027851;28;20118;-73
2023/10/05 11:35:29;;;;;;;10.77;2.78;;;;;;;19.35;71.87;102415.94;5027871;28;20509;-74
2023/10/05 11:38:04;;;;;;;12.75;2.92;;;;;;;19.30;73.68;102418.22;5027543;28;20037;-73
2023/10/05 11:40:41;;;;;;;14.27;3.20;;;;;;;19.34;72.27;102419.72;5032339;28;20039;-74
2023/10/05 11:43:13;;;;;;;8.02;2.83;;;;;;;19.46;73.28;102417.81;5026511;28;20058;-74
2023/10/05 11:45:53;;;;;;;11.90;3.63;;;;;;;19.59;75.04;102411.13;5027692;28;20116;-74